createdAt,value
2018-07-13T00:02:05.148Z,101460.55
2018-07-13T00:04:33.380Z,101469.12
2018-07-13T00:07:01.637Z,101466.09
2018-07-13T00:09:29.853Z,101464.42
2018-07-13T00:11:58.072Z,101461.91
2018-07-13T00:14:26.641Z,101463.08
2018-07-13T00:16:56.064Z,101465.09
2018-07-13T00:19:24.757Z,101467.92
2018-07-13T00:21:53.112Z,101470.91
2018-07-13T00:24:21.356Z,101467.72
2018-07-13T00:26:49.583Z,101469.90
2018-07-13T00:29:17.868Z,101475.45
2018-07-13T00:31:46.101Z,101478.02
2018-07-13T00:34:14.337Z,101476.69
2018-07-13T00:36:42.578Z,101478.72
2018-07-13T00:39:12.411Z,101475.72
2018-07-13T00:41:40.640Z,101479.27
2018-07-13T00:44:08.989Z,101476.93
2018-07-13T00:46:37.215Z,101479.12
2018-07-13T00:49:05.409Z,101477.80
2018-07-13T00:51:33.629Z,101480.84
2018-07-13T00:54:01.849Z,101479.88
2018-07-13T00:56:30.050Z,101482.91
2018-07-13T00:58:58.252Z,101484.60
2018-07-13T01:01:26.473Z,101480.25
2018-07-13T01:03:54.693Z,101488.69
2018-07-13T01:06:22.916Z,101485.84
2018-07-13T01:08:51.129Z,101487.20
2018-07-13T01:11:19.333Z,101484.02
2018-07-13T01:13:47.612Z,101489.06
2018-07-13T01:16:15.824Z,101482.72
2018-07-13T01:18:44.045Z,101480.72
2018-07-13T01:21:12.281Z,101481.22
2018-07-13T01:23:40.488Z,101489.45
2018-07-13T01:26:08.704Z,101487.60
2018-07-13T01:28:36.922Z,101489.28
2018-07-13T01:31:05.160Z,101490.64
2018-07-13T01:33:33.488Z,101490.14
2018-07-13T01:36:01.713Z,101491.86
2018-07-13T01:38:29.928Z,101492.20
2018-07-13T01:40:58.181Z,101505.29
2018-07-13T01:43:26.445Z,101505.63
2018-07-13T01:45:54.656Z,101499.92
2018-07-13T01:48:22.876Z,101500.59
2018-07-13T01:50:51.085Z,101500.97
2018-07-13T01:53:19.333Z,101506.00
2018-07-13T01:55:47.601Z,101508.52
2018-07-13T01:58:15.814Z,101505.98
2018-07-13T02:00:44.036Z,101507.48
2018-07-13T02:03:12.240Z,101503.97
2018-07-13T02:05:40.457Z,101502.95
2018-07-13T02:08:08.668Z,101503.97
2018-07-13T02:10:36.892Z,101511.68
2018-07-13T02:13:05.125Z,101507.83
2018-07-13T02:15:33.367Z,101505.31
2018-07-13T02:18:01.573Z,101507.33
2018-07-13T02:20:29.805Z,101503.67
2018-07-13T02:22:58.029Z,101509.70
2018-07-13T02:25:26.241Z,101511.05
2018-07-13T02:27:54.473Z,101504.68
2018-07-13T02:30:22.687Z,101506.36
2018-07-13T02:32:50.897Z,101509.74
2018-07-13T02:35:19.101Z,101512.09
2018-07-13T02:37:47.314Z,101510.08
2018-07-13T02:40:15.521Z,101513.77
2018-07-13T02:42:43.743Z,101521.14
2018-07-13T02:45:11.954Z,101520.80
2018-07-13T02:47:40.165Z,101520.47
2018-07-13T02:50:08.373Z,101524.99
2018-07-13T02:52:36.605Z,101524.83
2018-07-13T02:55:04.876Z,101526.50
2018-07-13T02:57:33.116Z,101526.19
2018-07-13T03:00:01.346Z,101532.56
2018-07-13T03:02:29.564Z,101526.86
2018-07-13T03:04:57.787Z,101530.38
2018-07-13T03:07:25.981Z,101527.86
2018-07-13T03:09:54.212Z,101531.21
2018-07-13T03:12:22.435Z,101530.20
2018-07-13T03:14:50.660Z,101531.54
2018-07-13T03:17:18.881Z,101533.88
2018-07-13T03:19:47.081Z,101539.75
2018-07-13T03:22:15.381Z,101542.63
2018-07-13T03:24:43.534Z,101540.11
2018-07-13T03:27:11.737Z,101539.77
2018-07-13T03:29:39.950Z,101549.83
2018-07-13T03:32:08.372Z,101550.15
2018-07-13T03:34:36.604Z,101555.67
2018-07-13T03:37:04.820Z,101555.00
2018-07-13T03:39:33.049Z,101557.01
2018-07-13T03:42:01.285Z,101554.69
2018-07-13T03:44:29.528Z,101557.03
2018-07-13T03:46:57.821Z,101553.00
2018-07-13T03:49:26.084Z,101557.03
2018-07-13T03:51:54.296Z,101556.69
2018-07-13T03:54:22.507Z,101554.01
2018-07-13T03:56:50.737Z,101552.33
2018-07-13T03:59:18.972Z,101552.67
2018-07-13T04:01:47.187Z,101548.47
2018-07-13T04:04:15.492Z,101551.48
2018-07-13T04:06:43.705Z,101554.83
2018-07-13T04:09:12.237Z,101551.94
2018-07-13T04:11:40.541Z,101554.11
2018-07-13T04:14:09.323Z,101558.99
2018-07-13T04:16:37.541Z,101560.67
2018-07-13T04:19:06.129Z,101563.34
2018-07-13T04:21:34.387Z,101556.65
2018-07-13T04:24:02.638Z,101555.62
2018-07-13T04:26:30.933Z,101560.98
2018-07-13T04:28:59.219Z,101564.83
2018-07-13T04:31:27.497Z,101559.64
2018-07-13T04:33:55.720Z,101560.14
2018-07-13T04:36:23.969Z,101559.48
2018-07-13T04:38:52.180Z,101551.98
2018-07-13T04:41:20.450Z,101557.02
2018-07-13T04:43:48.679Z,101558.69
2018-07-13T04:46:16.944Z,101561.88
2018-07-13T04:48:45.201Z,101552.16
2018-07-13T04:51:13.472Z,101556.67
2018-07-13T04:53:41.765Z,101554.83
2018-07-13T04:56:10.043Z,101549.75
2018-07-13T04:58:38.332Z,101562.16
2018-07-13T05:01:06.667Z,101554.45
2018-07-13T05:03:34.924Z,101549.80
2018-07-13T05:06:03.281Z,101555.50
2018-07-13T05:08:31.596Z,101552.32
2018-07-13T05:10:59.805Z,101554.66
2018-07-13T05:13:28.033Z,101556.30
2018-07-13T05:15:57.148Z,101556.95
2018-07-13T05:18:25.376Z,101558.97
2018-07-13T05:20:53.628Z,101561.31
2018-07-13T05:23:21.889Z,101556.80
2018-07-13T05:25:50.179Z,101566.02
2018-07-13T05:28:18.469Z,101567.52
2018-07-13T05:30:46.899Z,101564.33
2018-07-13T05:33:15.158Z,101572.71
2018-07-13T05:35:43.420Z,101570.20
2018-07-13T05:38:11.688Z,101572.71
2018-07-13T05:40:40.117Z,101576.60
2018-07-13T05:43:08.360Z,101576.10
2018-07-13T05:45:36.624Z,101579.28
2018-07-13T05:48:04.936Z,101574.42
2018-07-13T05:50:33.188Z,101579.13
2018-07-13T05:53:01.448Z,101576.78
2018-07-13T05:55:29.737Z,101576.28
2018-07-13T05:57:57.998Z,101577.78
2018-07-13T06:00:26.281Z,101577.28
2018-07-13T06:02:54.580Z,101578.80
2018-07-13T06:05:22.872Z,101584.16
2018-07-13T06:07:51.094Z,101588.35
2018-07-13T06:10:19.371Z,101580.31
2018-07-13T06:12:47.681Z,101581.97
2018-07-13T06:15:15.916Z,101574.12
2018-07-13T06:17:44.177Z,101581.17
2018-07-13T06:20:12.442Z,101571.77
2018-07-13T06:22:40.953Z,101579.14
2018-07-13T06:25:09.855Z,101574.12
2018-07-13T06:27:38.181Z,101585.50
2018-07-13T06:30:06.621Z,101584.50
2018-07-13T06:32:35.004Z,101589.20
2018-07-13T06:35:03.524Z,101582.83
2018-07-13T06:37:31.804Z,101587.53
2018-07-13T06:40:00.077Z,101588.70
2018-07-13T06:42:28.273Z,101589.19
2018-07-13T06:44:56.574Z,101587.52
2018-07-13T06:47:24.733Z,101586.84
2018-07-13T06:49:53.048Z,101585.84
2018-07-13T06:52:21.313Z,101588.83
2018-07-13T06:54:49.560Z,101591.69
2018-07-13T06:57:29.313Z,101599.23
2018-07-13T06:59:57.528Z,101596.89
2018-07-13T07:02:37.040Z,101596.22
2018-07-13T07:06:17.193Z,101595.75
2018-07-13T07:08:47.481Z,101604.13
2018-07-13T07:11:16.209Z,101604.94
2018-07-13T07:13:44.933Z,101604.77
2018-07-13T07:16:13.197Z,101600.91
2018-07-13T07:18:41.680Z,101602.77
2018-07-13T07:21:10.196Z,101603.60
2018-07-13T07:23:38.636Z,101599.23
2018-07-13T07:26:07.199Z,101597.89
2018-07-13T07:28:35.448Z,101597.56
2018-07-13T07:31:04.312Z,101597.56
2018-07-13T07:33:32.529Z,101596.55
2018-07-13T07:36:00.740Z,101595.38
2018-07-13T07:38:29.240Z,101599.57
2018-07-13T07:40:57.425Z,101597.56
2018-07-13T07:43:25.709Z,101592.86
2018-07-13T07:45:54.009Z,101596.52
2018-07-13T07:48:22.319Z,101591.82
2018-07-13T07:50:50.564Z,101599.87
2018-07-13T07:53:19.085Z,101588.45
2018-07-13T07:55:47.333Z,101589.13
2018-07-13T07:58:15.673Z,101589.97
2018-07-13T08:00:43.915Z,101591.14
2018-07-13T08:03:12.600Z,101598.83
2018-07-13T08:05:40.817Z,101594.45
2018-07-13T08:08:10.041Z,101586.39
2018-07-13T08:10:38.378Z,101588.41
2018-07-13T08:13:06.701Z,101589.58
2018-07-13T08:15:35.465Z,101588.41
2018-07-13T08:18:03.693Z,101587.52
2018-07-13T08:20:33.744Z,101588.70
2018-07-13T08:23:05.071Z,101589.36
2018-07-13T08:25:33.477Z,101594.39
2018-07-13T08:28:02.373Z,101596.73
2018-07-13T08:30:48.072Z,101590.98
2018-07-13T08:33:16.616Z,101588.30
2018-07-13T08:35:45.029Z,101589.95
2018-07-13T08:38:13.593Z,101587.77
2018-07-13T08:40:41.911Z,101587.92
2018-07-13T08:43:10.156Z,101590.59
2018-07-13T08:45:38.455Z,101586.55
2018-07-13T08:48:06.665Z,101583.52
2018-07-13T08:50:35.245Z,101591.23
2018-07-13T08:53:03.793Z,101590.02
2018-07-13T08:55:32.152Z,101583.80
2018-07-13T08:58:00.472Z,101584.14
2018-07-13T09:00:28.959Z,101584.47
2018-07-13T09:02:57.199Z,101581.43
2018-07-13T09:05:25.484Z,101580.92
2018-07-13T09:07:53.805Z,101581.10
2018-07-13T09:10:22.192Z,101587.14
2018-07-13T09:12:50.428Z,101587.13
2018-07-13T09:15:18.682Z,101583.07
2018-07-13T09:17:46.953Z,101588.06
2018-07-13T09:20:15.278Z,101580.31
2018-07-13T09:22:43.520Z,101587.02
2018-07-13T09:25:12.277Z,101587.68
2018-07-13T09:27:41.269Z,101588.52
2018-07-13T09:30:11.004Z,101588.81
2018-07-13T09:32:39.264Z,101581.41
2018-07-13T09:35:07.705Z,101588.97
2018-07-13T09:37:36.324Z,101583.92
2018-07-13T09:40:04.896Z,101575.50
2018-07-13T09:42:33.309Z,101578.67
2018-07-13T09:45:01.615Z,101574.97
2018-07-13T09:47:30.066Z,101583.82
2018-07-13T09:49:58.375Z,101580.12
2018-07-13T09:52:26.620Z,101580.45
2018-07-13T09:54:55.092Z,101580.12
2018-07-13T09:57:23.685Z,101585.98
2018-07-13T09:59:51.927Z,101583.77
2018-07-13T10:02:20.200Z,101579.05
2018-07-13T10:04:48.484Z,101574.99
2018-07-13T10:07:17.903Z,101581.84
2018-07-13T10:09:46.712Z,101580.30
2018-07-13T10:12:14.933Z,101577.54
2018-07-13T10:14:43.438Z,101588.78
2018-07-13T10:17:11.902Z,101574.13
2018-07-13T10:19:40.290Z,101576.47
2018-07-13T10:22:09.768Z,101582.77
2018-07-13T10:24:38.135Z,101580.02
2018-07-13T10:27:06.413Z,101581.33
2018-07-13T10:29:37.784Z,101579.55
2018-07-13T10:32:06.109Z,101576.78
2018-07-13T10:34:34.422Z,101571.95
2018-07-13T10:37:04.670Z,101567.72
2018-07-13T10:39:33.387Z,101565.09
2018-07-13T10:42:02.001Z,101574.30
2018-07-13T10:44:30.428Z,101572.84
2018-07-13T10:46:58.721Z,101571.65
2018-07-13T10:49:27.073Z,101567.02
2018-07-13T10:51:55.284Z,101564.58
2018-07-13T10:54:23.553Z,101569.52
2018-07-13T10:56:51.863Z,101567.95
2018-07-13T10:59:20.041Z,101566.69
2018-07-13T11:01:48.261Z,101566.21
2018-07-13T11:04:17.102Z,101560.94
2018-07-13T11:06:45.940Z,101556.57
2018-07-13T11:09:14.161Z,101555.16
2018-07-13T11:11:42.426Z,101555.67
2018-07-13T11:14:11.229Z,101551.40
2018-07-13T11:16:39.836Z,101542.03
2018-07-13T11:19:08.069Z,101553.28
2018-07-13T11:21:36.389Z,101552.94
2018-07-13T11:24:04.697Z,101551.23
2018-07-13T11:26:32.917Z,101546.42
2018-07-13T11:29:01.277Z,101544.95
2018-07-13T11:31:29.852Z,101543.02
2018-07-13T11:33:58.317Z,101547.96
2018-07-13T11:36:26.677Z,101545.19
2018-07-13T11:38:55.085Z,101530.33
2018-07-13T11:41:23.377Z,101534.38
2018-07-13T11:43:51.665Z,101535.72
2018-07-13T11:46:19.885Z,101524.06
2018-07-13T11:48:48.476Z,101532.12
2018-07-13T11:51:16.786Z,101527.77
2018-07-13T11:53:45.054Z,101525.26
2018-07-13T11:56:13.489Z,101523.05
2018-07-13T11:58:41.757Z,101515.28
2018-07-13T12:01:10.021Z,101520.23
2018-07-13T12:03:38.358Z,101513.50
2018-07-13T12:06:06.646Z,101510.75
2018-07-13T12:08:35.138Z,101509.83
2018-07-13T12:11:03.390Z,101497.86
2018-07-13T12:13:31.593Z,101497.67
2018-07-13T12:15:59.890Z,101489.95
2018-07-13T12:18:28.245Z,101496.99
2018-07-13T12:20:56.589Z,101490.87
2018-07-13T12:23:24.836Z,101486.79
2018-07-13T12:25:53.129Z,101479.52
2018-07-13T12:28:21.712Z,101481.17
2018-07-13T12:30:50.025Z,101474.37
2018-07-13T12:33:18.461Z,101476.72
2018-07-13T12:35:46.716Z,101479.34
2018-07-13T12:38:15.009Z,101473.38
2018-07-13T12:40:45.218Z,101473.23
2018-07-13T12:43:15.869Z,101475.83
2018-07-13T12:45:44.162Z,101473.11
2018-07-13T12:48:12.372Z,101473.70
2018-07-13T12:50:40.731Z,101471.37
2018-07-13T12:53:09.112Z,101478.17
2018-07-13T12:55:37.360Z,101479.48
2018-07-13T12:58:05.946Z,101471.69
2018-07-13T13:00:34.213Z,101473.60
2018-07-13T13:03:02.558Z,101465.63
2018-07-13T13:05:30.811Z,101465.36
2018-07-13T13:07:59.126Z,101463.16
2018-07-13T13:10:27.581Z,101465.19
2018-07-13T13:12:56.060Z,101464.95
2018-07-13T13:15:24.384Z,101468.16
2018-07-13T13:17:52.640Z,101467.54
2018-07-13T13:20:20.894Z,101460.96
2018-07-13T13:22:49.126Z,101465.66
2018-07-13T13:25:17.801Z,101454.27
2018-07-13T13:27:46.496Z,101458.84
2018-07-13T13:30:14.764Z,101457.00
2018-07-13T13:32:43.061Z,101459.30
2018-07-13T13:35:11.377Z,101453.34
2018-07-13T13:37:44.448Z,101447.81
2018-07-13T13:40:12.746Z,101452.08
2018-07-13T13:42:40.981Z,101457.72
2018-07-13T13:45:09.237Z,101452.08
2018-07-13T13:47:37.621Z,101446.20
2018-07-13T13:50:05.825Z,101447.08
2018-07-13T13:52:34.063Z,101444.06
2018-07-13T13:55:02.290Z,101443.86
2018-07-13T13:57:30.533Z,101439.69
2018-07-13T13:59:58.754Z,101444.87
2018-07-13T14:02:27.039Z,101442.81
2018-07-13T14:04:55.264Z,101435.98
2018-07-13T14:07:23.466Z,101444.27
2018-07-13T14:09:51.725Z,101434.66
2018-07-13T14:12:19.991Z,101435.25
2018-07-13T14:14:48.253Z,101433.64
2018-07-13T14:17:16.416Z,101428.80
2018-07-13T14:19:44.807Z,101427.44
2018-07-13T14:22:13.038Z,101423.34
2018-07-13T14:24:41.296Z,101425.30
2018-07-13T14:27:09.520Z,101424.51
2018-07-13T14:29:37.945Z,101421.98
2018-07-13T14:32:06.192Z,101424.22
2018-07-13T14:34:34.568Z,101419.42
2018-07-13T14:37:02.836Z,101419.52
2018-07-13T14:39:31.072Z,101414.78
2018-07-13T14:41:59.293Z,101417.80
2018-07-13T14:44:27.573Z,101415.30
2018-07-13T14:46:55.856Z,101423.36
2018-07-13T14:49:24.077Z,101419.44
2018-07-13T14:51:52.340Z,101411.42
2018-07-13T14:54:20.612Z,101417.70
2018-07-13T14:56:48.864Z,101417.52
2018-07-13T14:59:17.115Z,101405.80
2018-07-13T15:01:45.409Z,101406.33
2018-07-13T15:04:13.729Z,101403.39
2018-07-13T15:06:42.094Z,101401.19
2018-07-13T15:09:10.160Z,101403.44
2018-07-13T15:11:38.399Z,101396.39
2018-07-13T15:14:06.633Z,101394.80
2018-07-13T15:16:34.857Z,101401.91
2018-07-13T15:19:03.092Z,101394.80
2018-07-13T15:21:31.385Z,101394.27
2018-07-13T15:23:59.600Z,101389.23
2018-07-13T15:26:27.883Z,101396.41
2018-07-13T15:28:56.163Z,101400.28
2018-07-13T15:31:24.409Z,101397.09
2018-07-13T15:33:52.645Z,101386.92
2018-07-13T15:36:20.861Z,101381.47
2018-07-13T15:38:49.076Z,101388.90
2018-07-13T15:41:17.325Z,101385.16
2018-07-13T15:43:45.613Z,101383.31
2018-07-13T15:46:13.833Z,101393.69
2018-07-13T15:48:42.037Z,101391.94
2018-07-13T15:51:10.312Z,101394.08
2018-07-13T15:53:38.556Z,101390.89
2018-07-13T15:56:06.931Z,101387.08
2018-07-13T15:58:35.192Z,101387.08
2018-07-13T16:01:03.508Z,101388.97
2018-07-13T16:03:31.737Z,101396.63
2018-07-13T16:05:59.987Z,101384.22
2018-07-13T16:08:28.229Z,101381.55
2018-07-13T16:10:56.464Z,101379.19
2018-07-13T16:13:24.705Z,101387.47
2018-07-13T16:15:52.944Z,101374.53
2018-07-13T16:18:22.896Z,101377.02
2018-07-13T16:20:51.149Z,101369.37
2018-07-13T16:23:19.384Z,101368.73
2018-07-13T16:25:47.593Z,101377.89
2018-07-13T16:28:15.836Z,101382.02
2018-07-13T16:30:44.118Z,101379.85
2018-07-13T16:33:12.360Z,101374.87
2018-07-13T16:35:40.628Z,101368.58
2018-07-13T16:38:08.876Z,101376.55
2018-07-13T16:40:37.099Z,101362.54
2018-07-13T16:43:05.309Z,101363.66
2018-07-13T16:45:33.559Z,101356.52
2018-07-13T16:48:01.797Z,101352.92
2018-07-13T16:50:30.083Z,101355.67
2018-07-13T16:52:58.343Z,101353.44
2018-07-13T16:55:26.596Z,101355.53
2018-07-13T16:57:54.833Z,101345.54
2018-07-13T17:00:23.175Z,101346.28
2018-07-13T17:02:51.464Z,101353.75
2018-07-13T17:05:19.718Z,101349.52
2018-07-13T17:07:47.925Z,101352.72
2018-07-13T17:10:16.224Z,101345.16
2018-07-13T17:12:44.645Z,101343.14
2018-07-13T17:15:12.873Z,101344.40
2018-07-13T17:17:41.109Z,101336.91
2018-07-13T17:20:09.375Z,101344.36
2018-07-13T17:22:37.549Z,101341.42
2018-07-13T17:25:06.173Z,101339.92
2018-07-13T17:27:35.157Z,101348.44
2018-07-13T17:30:03.494Z,101347.05
2018-07-13T17:32:31.734Z,101347.59
2018-07-13T17:35:00.033Z,101351.58
2018-07-13T17:37:28.226Z,101342.28
2018-07-13T17:39:56.492Z,101344.70
2018-07-13T17:42:24.753Z,101343.98
2018-07-13T17:44:53.008Z,101338.52
2018-07-13T17:47:21.233Z,101340.20
2018-07-13T17:49:49.456Z,101336.66
2018-07-13T17:52:17.704Z,101336.03
2018-07-13T17:54:45.949Z,101337.00
2018-07-13T17:57:14.312Z,101333.34
2018-07-13T17:59:42.545Z,101329.50
2018-07-13T18:02:10.773Z,101327.92
2018-07-13T18:04:39.033Z,101330.19
2018-07-13T18:07:07.332Z,101328.37
2018-07-13T18:09:35.537Z,101328.84
2018-07-13T18:12:03.812Z,101333.72
2018-07-13T18:14:32.041Z,101331.80
2018-07-13T18:17:00.293Z,101324.41
2018-07-13T18:19:28.561Z,101323.91
2018-07-13T18:21:56.829Z,101332.91
2018-07-13T18:24:25.057Z,101331.09
2018-07-13T18:26:53.266Z,101321.35
2018-07-13T18:29:21.492Z,101332.50
2018-07-13T18:31:49.729Z,101330.02
2018-07-13T18:34:17.968Z,101331.44
2018-07-13T18:36:46.191Z,101328.73
2018-07-13T18:39:14.412Z,101331.81
2018-07-13T18:41:42.690Z,101334.61
2018-07-13T18:44:10.984Z,101336.73
2018-07-13T18:46:39.138Z,101335.20
2018-07-13T18:49:07.379Z,101332.57
2018-07-13T18:51:35.706Z,101333.97
2018-07-13T18:54:03.988Z,101339.03
2018-07-13T18:56:32.243Z,101333.66
2018-07-13T18:59:00.474Z,101342.14
2018-07-13T19:01:28.692Z,101342.42
2018-07-13T19:03:56.925Z,101343.52
2018-07-13T19:06:25.139Z,101345.15
2018-07-13T19:08:53.360Z,101348.54
2018-07-13T19:11:21.789Z,101343.98
2018-07-13T19:13:50.049Z,101345.36
2018-07-13T19:16:18.266Z,101350.31
2018-07-13T19:18:46.474Z,101347.51
2018-07-13T19:21:14.729Z,101347.62
2018-07-13T19:23:42.928Z,101352.27
2018-07-13T19:26:11.140Z,101348.44
2018-07-13T19:28:39.353Z,101340.38
2018-07-13T19:31:07.699Z,101352.95
2018-07-13T19:33:35.923Z,101364.04
2018-07-13T19:36:04.169Z,101364.26
2018-07-13T19:38:32.374Z,101365.55
2018-07-13T19:41:00.618Z,101361.73
2018-07-13T19:43:28.846Z,101372.04
2018-07-13T19:45:57.094Z,101367.66
2018-07-13T19:48:25.335Z,101377.79
2018-07-13T19:50:53.533Z,101382.78
2018-07-13T19:53:21.773Z,101384.84
2018-07-13T19:55:50.058Z,101381.53
2018-07-13T19:58:18.280Z,101387.66
2018-07-13T20:00:46.624Z,101382.78
2018-07-13T20:03:14.861Z,101382.45
2018-07-13T20:05:43.084Z,101375.27
2018-07-13T20:08:11.308Z,101390.66
2018-07-13T20:10:39.537Z,101385.87
2018-07-13T20:13:07.770Z,101393.75
2018-07-13T20:15:36.000Z,101385.81
2018-07-13T20:18:04.244Z,101386.73
2018-07-13T20:20:32.485Z,101397.75
2018-07-13T20:23:00.735Z,101393.90
2018-07-13T20:25:28.957Z,101399.06
2018-07-13T20:27:57.172Z,101394.78
2018-07-13T20:30:25.544Z,101401.33
2018-07-13T20:32:53.765Z,101404.43
2018-07-13T20:35:22.187Z,101403.27
2018-07-13T20:37:50.780Z,101401.37
2018-07-13T20:40:19.037Z,101407.56
2018-07-13T20:42:47.310Z,101417.72
2018-07-13T20:45:15.693Z,101411.08
2018-07-13T20:47:43.968Z,101405.12
2018-07-13T20:50:12.201Z,101412.23
2018-07-13T20:52:40.423Z,101412.53
2018-07-13T20:55:08.648Z,101412.80
2018-07-13T20:57:36.883Z,101416.92
2018-07-13T21:00:05.652Z,101416.70
2018-07-13T21:02:33.894Z,101414.15
2018-07-13T21:05:02.123Z,101419.94
2018-07-13T21:07:30.346Z,101418.69
2018-07-13T21:09:58.561Z,101421.58
2018-07-13T21:12:26.773Z,101428.00
2018-07-13T21:14:55.009Z,101428.58
2018-07-13T21:17:23.257Z,101427.30
2018-07-13T21:19:51.502Z,101422.61
2018-07-13T21:22:19.712Z,101424.18
2018-07-13T21:24:48.038Z,101434.14
2018-07-13T21:27:16.287Z,101430.48
2018-07-13T21:29:44.636Z,101429.52
2018-07-13T21:32:12.852Z,101427.91
2018-07-13T21:34:41.064Z,101430.56
2018-07-13T21:37:09.305Z,101432.11
2018-07-13T21:39:37.537Z,101433.78
2018-07-13T21:42:06.174Z,101433.61
2018-07-13T21:44:34.501Z,101437.20
2018-07-13T21:47:02.813Z,101440.50
2018-07-13T21:49:31.346Z,101439.59
2018-07-13T21:51:59.667Z,101429.77
2018-07-13T21:54:27.935Z,101435.56
2018-07-13T21:56:56.182Z,101433.25
2018-07-13T21:59:24.392Z,101432.22
2018-07-13T22:01:52.640Z,101432.22
2018-07-13T22:04:20.892Z,101428.18
2018-07-13T22:06:49.156Z,101424.14
2018-07-13T22:09:17.432Z,101423.87
2018-07-13T22:11:45.633Z,101428.30
2018-07-13T22:14:13.885Z,101423.41
2018-07-13T22:16:42.102Z,101435.67
2018-07-13T22:19:10.361Z,101432.33
2018-07-13T22:21:38.666Z,101433.77
2018-07-13T22:24:07.000Z,101429.45
2018-07-13T22:26:35.257Z,101437.45
2018-07-13T22:29:03.559Z,101438.05
2018-07-13T22:31:31.749Z,101442.47
2018-07-13T22:33:59.973Z,101447.07
2018-07-13T22:36:28.184Z,101446.23
2018-07-13T22:38:56.801Z,101443.54
2018-07-13T22:41:25.257Z,101447.34
2018-07-13T22:43:53.513Z,101448.00
2018-07-13T22:46:21.766Z,101452.41
2018-07-13T22:48:50.036Z,101445.73
2018-07-13T22:51:18.268Z,101448.47
2018-07-13T22:53:46.464Z,101444.42
2018-07-13T22:56:14.738Z,101443.91
2018-07-13T22:58:42.973Z,101448.61
2018-07-13T23:01:11.197Z,101453.74
2018-07-13T23:03:39.409Z,101447.75
2018-07-13T23:06:07.637Z,101450.63
2018-07-13T23:08:35.864Z,101448.08
2018-07-13T23:11:04.144Z,101445.16
2018-07-13T23:13:32.370Z,101439.55
2018-07-13T23:16:00.606Z,101444.42
2018-07-13T23:18:28.808Z,101440.79
2018-07-13T23:20:57.016Z,101439.53
2018-07-13T23:23:25.285Z,101437.61
2018-07-13T23:25:53.541Z,101434.81
2018-07-13T23:28:21.939Z,101442.09
2018-07-13T23:30:50.162Z,101436.79
2018-07-13T23:33:18.410Z,101442.47
2018-07-13T23:35:46.713Z,101439.27
2018-07-13T23:38:14.945Z,101439.59
2018-07-13T23:40:43.164Z,101440.10
2018-07-13T23:43:11.496Z,101431.77
2018-07-13T23:45:39.761Z,101437.56
2018-07-13T23:48:08.049Z,101433.45
2018-07-13T23:50:37.066Z,101438.55
2018-07-13T23:53:05.323Z,101440.07
2018-07-13T23:55:33.522Z,101431.70
2018-07-13T23:58:01.741Z,101435.41
